sensor_id;sensor_type;location;lat;lon;timestamp;P1;durP1;ratioP1;P2;durP2;ratioP2
22336;SDS011;14992;50.844;4.418;2024-03-08T00:00:42;17.95;;;9.13;;
22336;SDS011;14992;50.844;4.418;2024-03-08T00:03:11;17.95;;;8.68;;
22336;SDS011;14992;50.844;4.418;2024-03-08T00:05:42;19.55;;;8.73;;
22336;SDS011;14992;50.844;4.418;2024-03-08T00:08:11;17.30;;;8.65;;
22336;SDS011;14992;50.844;4.418;2024-03-08T00:10:40;17.33;;;8.20;;
22336;SDS011;14992;50.844;4.418;2024-03-08T00:13:09;17.88;;;9.38;;
22336;SDS011;14992;50.844;4.418;2024-03-08T00:15:37;16.63;;;8.90;;
22336;SDS011;14992;50.844;4.418;2024-03-08T00:18:08;17.73;;;8.45;;
22336;SDS011;14992;50.844;4.418;2024-03-08T00:20:38;17.63;;;8.15;;
22336;SDS011;14992;50.844;4.418;2024-03-08T00:23:09;18.45;;;8.82;;
22336;SDS011;14992;50.844;4.418;2024-03-08T00:25:38;18.90;;;8.70;;
22336;SDS011;14992;50.844;4.418;2024-03-08T00:28:07;17.77;;;9.25;;
22336;SDS011;14992;50.844;4.418;2024-03-08T00:30:40;16.58;;;8.40;;
22336;SDS011;14992;50.844;4.418;2024-03-08T00:33:09;17.50;;;9.02;;
22336;SDS011;14992;50.844;4.418;2024-03-08T00:35:38;18.40;;;9.15;;
22336;SDS011;14992;50.844;4.418;2024-03-08T00:38:07;20.60;;;9.70;;
22336;SDS011;14992;50.844;4.418;2024-03-08T00:40:38;16.95;;;8.95;;
22336;SDS011;14992;50.844;4.418;2024-03-08T00:43:08;21.52;;;9.07;;
22336;SDS011;14992;50.844;4.418;2024-03-08T00:45:37;17.77;;;8.57;;
22336;SDS011;14992;50.844;4.418;2024-03-08T00:48:09;16.45;;;8.95;;
22336;SDS011;14992;50.844;4.418;2024-03-08T00:50:39;19.48;;;9.48;;
22336;SDS011;14992;50.844;4.418;2024-03-08T00:53:11;18.27;;;9.05;;
22336;SDS011;14992;50.844;4.418;2024-03-08T00:55:40;15.63;;;8.23;;
22336;SDS011;14992;50.844;4.418;2024-03-08T00:58:09;19.38;;;9.52;;
22336;SDS011;14992;50.844;4.418;2024-03-08T01:00:38;22.38;;;9.57;;
22336;SDS011;14992;50.844;4.418;2024-03-08T01:03:07;20.05;;;8.88;;
22336;SDS011;14992;50.844;4.418;2024-03-08T01:05:38;17.10;;;8.88;;
22336;SDS011;14992;50.844;4.418;2024-03-08T01:08:06;21.67;;;9.32;;
22336;SDS011;14992;50.844;4.418;2024-03-08T01:10:40;19.67;;;9.73;;
22336;SDS011;14992;50.844;4.418;2024-03-08T01:13:09;21.48;;;8.68;;
22336;SDS011;14992;50.844;4.418;2024-03-08T01:15:38;20.15;;;10.90;;
22336;SDS011;14992;50.844;4.418;2024-03-08T01:18:08;19.40;;;8.68;;
22336;SDS011;14992;50.844;4.418;2024-03-08T01:20:38;20.63;;;9.98;;
22336;SDS011;14992;50.844;4.418;2024-03-08T01:23:08;20.92;;;9.25;;
22336;SDS011;14992;50.844;4.418;2024-03-08T01:25:37;18.88;;;9.65;;
22336;SDS011;14992;50.844;4.418;2024-03-08T01:28:08;17.15;;;9.23;;
22336;SDS011;14992;50.844;4.418;2024-03-08T01:30:37;20.23;;;10.15;;
22336;SDS011;14992;50.844;4.418;2024-03-08T01:33:06;20.70;;;10.05;;
22336;SDS011;14992;50.844;4.418;2024-03-08T01:35:35;18.33;;;9.10;;
22336;SDS011;14992;50.844;4.418;2024-03-08T01:38:04;23.10;;;10.52;;
22336;SDS011;14992;50.844;4.418;2024-03-08T01:40:33;23.17;;;10.80;;
22336;SDS011;14992;50.844;4.418;2024-03-08T01:45:47;19.83;;;10.30;;
22336;SDS011;14992;50.844;4.418;2024-03-08T01:48:17;17.92;;;8.88;;
22336;SDS011;14992;50.844;4.418;2024-03-08T01:50:49;20.38;;;9.80;;
22336;SDS011;14992;50.844;4.418;2024-03-08T01:53:20;17.90;;;9.63;;
22336;SDS011;14992;50.844;4.418;2024-03-08T01:55:49;20.50;;;9.35;;
22336;SDS011;14992;50.844;4.418;2024-03-08T02:00:52;16.65;;;9.30;;
22336;SDS011;14992;50.844;4.418;2024-03-08T02:03:24;22.85;;;10.13;;
22336;SDS011;14992;50.844;4.418;2024-03-08T02:05:53;21.25;;;10.00;;
22336;SDS011;14992;50.844;4.418;2024-03-08T02:08:22;23.60;;;10.48;;
22336;SDS011;14992;50.844;4.418;2024-03-08T02:10:51;24.13;;;10.77;;
22336;SDS011;14992;50.844;4.418;2024-03-08T02:13:20;21.00;;;10.73;;
22336;SDS011;14992;50.844;4.418;2024-03-08T02:15:53;20.35;;;11.00;;
22336;SDS011;14992;50.844;4.418;2024-03-08T02:18:23;23.83;;;11.13;;
22336;SDS011;14992;50.844;4.418;2024-03-08T02:20:54;20.65;;;10.52;;
22336;SDS011;14992;50.844;4.418;2024-03-08T02:23:23;23.23;;;10.45;;
22336;SDS011;14992;50.844;4.418;2024-03-08T02:25:54;21.45;;;11.55;;
22336;SDS011;14992;50.844;4.418;2024-03-08T02:28:24;22.33;;;11.25;;
22336;SDS011;14992;50.844;4.418;2024-03-08T02:30:53;21.63;;;11.18;;
22336;SDS011;14992;50.844;4.418;2024-03-08T02:33:24;20.83;;;11.38;;
22336;SDS011;14992;50.844;4.418;2024-03-08T02:35:56;20.73;;;10.98;;
22336;SDS011;14992;50.844;4.418;2024-03-08T02:38:25;21.20;;;11.30;;
22336;SDS011;14992;50.844;4.418;2024-03-08T02:40:55;21.00;;;9.52;;
22336;SDS011;14992;50.844;4.418;2024-03-08T02:43:24;21.33;;;11.60;;
22336;SDS011;14992;50.844;4.418;2024-03-08T02:45:53;18.98;;;11.32;;
22336;SDS011;14992;50.844;4.418;2024-03-08T02:48:22;21.25;;;11.13;;
22336;SDS011;14992;50.844;4.418;2024-03-08T02:50:51;22.15;;;12.05;;
22336;SDS011;14992;50.844;4.418;2024-03-08T02:53:22;25.40;;;13.38;;
22336;SDS011;14992;50.844;4.418;2024-03-08T02:55:52;18.92;;;10.70;;
22336;SDS011;14992;50.844;4.418;2024-03-08T02:58:22;21.23;;;11.82;;
22336;SDS011;14992;50.844;4.418;2024-03-08T03:00:51;24.23;;;13.07;;
22336;SDS011;14992;50.844;4.418;2024-03-08T03:03:20;20.60;;;10.88;;
22336;SDS011;14992;50.844;4.418;2024-03-08T03:05:49;19.58;;;10.57;;
22336;SDS011;14992;50.844;4.418;2024-03-08T03:08:18;25.50;;;12.32;;
22336;SDS011;14992;50.844;4.418;2024-03-08T03:10:48;22.23;;;11.65;;
22336;SDS011;14992;50.844;4.418;2024-03-08T03:13:17;20.08;;;10.65;;
22336;SDS011;14992;50.844;4.418;2024-03-08T03:15:46;25.02;;;11.95;;
22336;SDS011;14992;50.844;4.418;2024-03-08T03:18:15;22.38;;;11.48;;
22336;SDS011;14992;50.844;4.418;2024-03-08T03:20:48;24.52;;;11.40;;
22336;SDS011;14992;50.844;4.418;2024-03-08T03:23:17;24.05;;;11.60;;
22336;SDS011;14992;50.844;4.418;2024-03-08T03:25:49;22.38;;;12.38;;
22336;SDS011;14992;50.844;4.418;2024-03-08T03:28:19;24.27;;;12.10;;
22336;SDS011;14992;50.844;4.418;2024-03-08T03:30:51;23.98;;;12.75;;
22336;SDS011;14992;50.844;4.418;2024-03-08T03:33:20;25.63;;;12.02;;
22336;SDS011;14992;50.844;4.418;2024-03-08T03:35:49;25.02;;;12.00;;
22336;SDS011;14992;50.844;4.418;2024-03-08T03:38:19;24.58;;;12.77;;
22336;SDS011;14992;50.844;4.418;2024-03-08T03:40:51;21.80;;;11.95;;
22336;SDS011;14992;50.844;4.418;2024-03-08T03:43:24;23.80;;;12.32;;
22336;SDS011;14992;50.844;4.418;2024-03-08T03:45:53;28.00;;;12.70;;
22336;SDS011;14992;50.844;4.418;2024-03-08T03:48:22;23.30;;;12.88;;
22336;SDS011;14992;50.844;4.418;2024-03-08T03:50:51;24.35;;;11.00;;
22336;SDS011;14992;50.844;4.418;2024-03-08T03:53:20;19.15;;;12.25;;
22336;SDS011;14992;50.844;4.418;2024-03-08T03:55:49;22.30;;;11.48;;
22336;SDS011;14992;50.844;4.418;2024-03-08T03:58:19;24.08;;;12.77;;
22336;SDS011;14992;50.844;4.418;2024-03-08T04:00:50;26.30;;;12.88;;
22336;SDS011;14992;50.844;4.418;2024-03-08T04:03:19;23.77;;;13.00;;
22336;SDS011;14992;50.844;4.418;2024-03-08T04:05:48;22.73;;;12.77;;
22336;SDS011;14992;50.844;4.418;2024-03-08T04:08:18;20.77;;;11.85;;
22336;SDS011;14992;50.844;4.418;2024-03-08T04:10:46;24.38;;;12.77;;
22336;SDS011;14992;50.844;4.418;2024-03-08T04:13:17;23.05;;;12.10;;
22336;SDS011;14992;50.844;4.418;2024-03-08T04:15:47;22.55;;;12.77;;
22336;SDS011;14992;50.844;4.418;2024-03-08T04:18:16;22.38;;;12.40;;
22336;SDS011;14992;50.844;4.418;2024-03-08T04:20:46;21.02;;;12.07;;
22336;SDS011;14992;50.844;4.418;2024-03-08T04:23:15;19.40;;;12.00;;
22336;SDS011;14992;50.844;4.418;2024-03-08T04:25:45;20.42;;;11.02;;
22336;SDS011;14992;50.844;4.418;2024-03-08T04:28:13;19.50;;;11.38;;
22336;SDS011;14992;50.844;4.418;2024-03-08T04:30:45;23.65;;;11.80;;
22336;SDS011;14992;50.844;4.418;2024-03-08T04:33:14;20.40;;;11.60;;
22336;SDS011;14992;50.844;4.418;2024-03-08T04:35:45;23.92;;;13.43;;
22336;SDS011;14992;50.844;4.418;2024-03-08T04:38:14;20.98;;;11.63;;
22336;SDS011;14992;50.844;4.418;2024-03-08T04:40:43;22.88;;;12.57;;
22336;SDS011;14992;50.844;4.418;2024-03-08T04:43:12;25.20;;;12.43;;
22336;SDS011;14992;50.844;4.418;2024-03-08T04:45:42;23.92;;;12.55;;
22336;SDS011;14992;50.844;4.418;2024-03-08T04:48:12;23.33;;;11.68;;
22336;SDS011;14992;50.844;4.418;2024-03-08T04:50:41;18.90;;;10.32;;
22336;SDS011;14992;50.844;4.418;2024-03-08T04:53:12;21.75;;;11.65;;
22336;SDS011;14992;50.844;4.418;2024-03-08T04:55:40;23.38;;;12.40;;
22336;SDS011;14992;50.844;4.418;2024-03-08T04:58:09;27.45;;;11.45;;
22336;SDS011;14992;50.844;4.418;2024-03-08T05:00:38;24.95;;;12.65;;
22336;SDS011;14992;50.844;4.418;2024-03-08T05:03:07;21.10;;;11.98;;
22336;SDS011;14992;50.844;4.418;2024-03-08T05:05:38;25.52;;;12.02;;
22336;SDS011;14992;50.844;4.418;2024-03-08T05:08:07;23.70;;;13.20;;
22336;SDS011;14992;50.844;4.418;2024-03-08T05:10:35;22.55;;;12.50;;
22336;SDS011;14992;50.844;4.418;2024-03-08T05:13:04;25.73;;;12.40;;
22336;SDS011;14992;50.844;4.418;2024-03-08T05:15:33;23.33;;;12.68;;
22336;SDS011;14992;50.844;4.418;2024-03-08T05:18:03;24.60;;;12.20;;
22336;SDS011;14992;50.844;4.418;2024-03-08T05:20:33;21.95;;;11.50;;
22336;SDS011;14992;50.844;4.418;2024-03-08T05:23:05;21.60;;;11.95;;
22336;SDS011;14992;50.844;4.418;2024-03-08T05:25:35;23.23;;;11.18;;
22336;SDS011;14992;50.844;4.418;2024-03-08T05:28:04;22.95;;;12.07;;
22336;SDS011;14992;50.844;4.418;2024-03-08T05:30:33;25.60;;;12.30;;
22336;SDS011;14992;50.844;4.418;2024-03-08T05:33:03;23.55;;;12.38;;
22336;SDS011;14992;50.844;4.418;2024-03-08T05:35:32;24.75;;;12.63;;
22336;SDS011;14992;50.844;4.418;2024-03-08T05:38:03;22.00;;;10.38;;
22336;SDS011;14992;50.844;4.418;2024-03-08T05:40:33;24.13;;;12.25;;
22336;SDS011;14992;50.844;4.418;2024-03-08T05:43:02;27.95;;;12.35;;
22336;SDS011;14992;50.844;4.418;2024-03-08T05:45:32;26.30;;;13.20;;
22336;SDS011;14992;50.844;4.418;2024-03-08T05:48:01;22.40;;;12.45;;
22336;SDS011;14992;50.844;4.418;2024-03-08T05:50:30;27.58;;;13.10;;
22336;SDS011;14992;50.844;4.418;2024-03-08T05:52:59;25.08;;;11.77;;
22336;SDS011;14992;50.844;4.418;2024-03-08T05:55:28;21.90;;;11.13;;
22336;SDS011;14992;50.844;4.418;2024-03-08T05:57:59;24.10;;;13.20;;
22336;SDS011;14992;50.844;4.418;2024-03-08T06:00:28;25.35;;;11.50;;
22336;SDS011;14992;50.844;4.418;2024-03-08T06:02:58;21.80;;;11.48;;
22336;SDS011;14992;50.844;4.418;2024-03-08T06:05:27;23.35;;;10.57;;
22336;SDS011;14992;50.844;4.418;2024-03-08T06:07:56;23.35;;;12.35;;
22336;SDS011;14992;50.844;4.418;2024-03-08T06:10:25;20.13;;;11.38;;
22336;SDS011;14992;50.844;4.418;2024-03-08T06:12:55;23.70;;;11.48;;
22336;SDS011;14992;50.844;4.418;2024-03-08T06:15:25;21.92;;;12.30;;
22336;SDS011;14992;50.844;4.418;2024-03-08T06:17:54;24.23;;;11.63;;
22336;SDS011;14992;50.844;4.418;2024-03-08T06:20:23;23.63;;;11.88;;
22336;SDS011;14992;50.844;4.418;2024-03-08T06:22:53;24.80;;;12.70;;
22336;SDS011;14992;50.844;4.418;2024-03-08T06:25:22;24.80;;;11.80;;
22336;SDS011;14992;50.844;4.418;2024-03-08T06:27:51;24.27;;;12.27;;
22336;SDS011;14992;50.844;4.418;2024-03-08T06:30:21;25.15;;;11.18;;
22336;SDS011;14992;50.844;4.418;2024-03-08T06:32:52;22.77;;;12.77;;
22336;SDS011;14992;50.844;4.418;2024-03-08T06:35:20;22.20;;;12.15;;
22336;SDS011;14992;50.844;4.418;2024-03-08T06:37:49;29.00;;;13.13;;
22336;SDS011;14992;50.844;4.418;2024-03-08T06:40:18;23.05;;;11.82;;
22336;SDS011;14992;50.844;4.418;2024-03-08T06:42:47;24.75;;;12.73;;
22336;SDS011;14992;50.844;4.418;2024-03-08T06:45:18;22.27;;;11.35;;
22336;SDS011;14992;50.844;4.418;2024-03-08T06:47:48;26.50;;;13.07;;
22336;SDS011;14992;50.844;4.418;2024-03-08T06:50:19;25.90;;;12.68;;
22336;SDS011;14992;50.844;4.418;2024-03-08T06:52:48;28.17;;;14.25;;
22336;SDS011;14992;50.844;4.418;2024-03-08T06:55:20;21.80;;;10.73;;
22336;SDS011;14992;50.844;4.418;2024-03-08T06:57:49;25.92;;;11.82;;
22336;SDS011;14992;50.844;4.418;2024-03-08T07:00:18;23.38;;;11.70;;
22336;SDS011;14992;50.844;4.418;2024-03-08T07:02:48;19.98;;;11.75;;
22336;SDS011;14992;50.844;4.418;2024-03-08T07:05:17;22.73;;;10.77;;
22336;SDS011;14992;50.844;4.418;2024-03-08T07:07:47;24.25;;;13.13;;
22336;SDS011;14992;50.844;4.418;2024-03-08T07:10:16;24.67;;;11.85;;
22336;SDS011;14992;50.844;4.418;2024-03-08T07:12:46;26.08;;;13.15;;
22336;SDS011;14992;50.844;4.418;2024-03-08T07:15:15;17.00;;;9.75;;
22336;SDS011;14992;50.844;4.418;2024-03-08T07:17:46;24.67;;;11.77;;
22336;SDS011;14992;50.844;4.418;2024-03-08T07:20:16;18.60;;;10.55;;
22336;SDS011;14992;50.844;4.418;2024-03-08T07:22:47;23.77;;;11.95;;
22336;SDS011;14992;50.844;4.418;2024-03-08T07:25:18;19.02;;;9.75;;
22336;SDS011;14992;50.844;4.418;2024-03-08T07:27:51;24.75;;;11.95;;
22336;SDS011;14992;50.844;4.418;2024-03-08T07:30:22;23.77;;;12.80;;
22336;SDS011;14992;50.844;4.418;2024-03-08T07:33:10;23.05;;;12.07;;
22336;SDS011;14992;50.844;4.418;2024-03-08T07:35:40;20.63;;;11.15;;
22336;SDS011;14992;50.844;4.418;2024-03-08T07:38:12;24.92;;;11.77;;
22336;SDS011;14992;50.844;4.418;2024-03-08T07:40:43;21.80;;;12.40;;
22336;SDS011;14992;50.844;4.418;2024-03-08T07:43:12;22.42;;;10.57;;
22336;SDS011;14992;50.844;4.418;2024-03-08T07:45:42;23.92;;;11.23;;
22336;SDS011;14992;50.844;4.418;2024-03-08T07:48:11;22.52;;;10.43;;
22336;SDS011;14992;50.844;4.418;2024-03-08T07:50:40;23.55;;;12.43;;
22336;SDS011;14992;50.844;4.418;2024-03-08T07:53:09;24.48;;;12.73;;
22336;SDS011;14992;50.844;4.418;2024-03-08T07:55:40;23.85;;;11.52;;
22336;SDS011;14992;50.844;4.418;2024-03-08T07:58:09;22.48;;;11.68;;
22336;SDS011;14992;50.844;4.418;2024-03-08T08:00:40;24.08;;;12.77;;
22336;SDS011;14992;50.844;4.418;2024-03-08T08:03:10;15.73;;;8.40;;
22336;SDS011;14992;50.844;4.418;2024-03-08T08:05:39;22.30;;;11.23;;
22336;SDS011;14992;50.844;4.418;2024-03-08T08:08:08;18.42;;;9.75;;
22336;SDS011;14992;50.844;4.418;2024-03-08T08:10:40;23.67;;;11.50;;
22336;SDS011;14992;50.844;4.418;2024-03-08T08:13:09;23.45;;;11.00;;
22336;SDS011;14992;50.844;4.418;2024-03-08T08:15:38;20.85;;;11.18;;
22336;SDS011;14992;50.844;4.418;2024-03-08T08:18:07;22.35;;;10.65;;
22336;SDS011;14992;50.844;4.418;2024-03-08T08:20:37;19.40;;;11.30;;
22336;SDS011;14992;50.844;4.418;2024-03-08T08:23:06;23.10;;;10.90;;
22336;SDS011;14992;50.844;4.418;2024-03-08T08:25:36;20.17;;;10.77;;
22336;SDS011;14992;50.844;4.418;2024-03-08T08:28:06;20.83;;;10.77;;
22336;SDS011;14992;50.844;4.418;2024-03-08T08:30:36;18.52;;;10.77;;
22336;SDS011;14992;50.844;4.418;2024-03-08T08:33:05;19.27;;;10.93;;
22336;SDS011;14992;50.844;4.418;2024-03-08T08:35:35;22.20;;;10.43;;
22336;SDS011;14992;50.844;4.418;2024-03-08T08:38:04;23.17;;;12.10;;
22336;SDS011;14992;50.844;4.418;2024-03-08T08:40:34;19.92;;;11.27;;
22336;SDS011;14992;50.844;4.418;2024-03-08T08:43:04;23.35;;;10.88;;
22336;SDS011;14992;50.844;4.418;2024-03-08T08:45:35;21.77;;;9.38;;
22336;SDS011;14992;50.844;4.418;2024-03-08T08:48:06;20.17;;;11.25;;
22336;SDS011;14992;50.844;4.418;2024-03-08T08:50:35;19.58;;;10.48;;
22336;SDS011;14992;50.844;4.418;2024-03-08T08:53:04;20.27;;;11.10;;
22336;SDS011;14992;50.844;4.418;2024-03-08T08:55:35;21.17;;;10.98;;
22336;SDS011;14992;50.844;4.418;2024-03-08T08:58:04;20.92;;;10.48;;
22336;SDS011;14992;50.844;4.418;2024-03-08T09:00:35;20.90;;;10.20;;
22336;SDS011;14992;50.844;4.418;2024-03-08T09:03:04;19.70;;;9.82;;
22336;SDS011;14992;50.844;4.418;2024-03-08T09:05:34;20.95;;;10.55;;
22336;SDS011;14992;50.844;4.418;2024-03-08T09:08:06;20.88;;;10.27;;
22336;SDS011;14992;50.844;4.418;2024-03-08T09:10:36;16.70;;;9.68;;
22336;SDS011;14992;50.844;4.418;2024-03-08T09:13:06;19.33;;;10.57;;
22336;SDS011;14992;50.844;4.418;2024-03-08T09:15:45;24.50;;;10.90;;
22336;SDS011;14992;50.844;4.418;2024-03-08T09:18:17;19.23;;;9.82;;
22336;SDS011;14992;50.844;4.418;2024-03-08T09:20:47;17.30;;;8.63;;
22336;SDS011;14992;50.844;4.418;2024-03-08T09:23:16;18.58;;;10.32;;
22336;SDS011;14992;50.844;4.418;2024-03-08T09:25:48;21.83;;;10.77;;
22336;SDS011;14992;50.844;4.418;2024-03-08T09:28:17;24.52;;;10.93;;
22336;SDS011;14992;50.844;4.418;2024-03-08T09:30:48;21.35;;;10.95;;
22336;SDS011;14992;50.844;4.418;2024-03-08T09:33:26;21.05;;;10.35;;
22336;SDS011;14992;50.844;4.418;2024-03-08T09:35:56;15.93;;;8.30;;
22336;SDS011;14992;50.844;4.418;2024-03-08T09:38:29;21.30;;;10.18;;
22336;SDS011;14992;50.844;4.418;2024-03-08T09:40:58;19.42;;;10.63;;
22336;SDS011;14992;50.844;4.418;2024-03-08T09:43:28;21.08;;;10.98;;
22336;SDS011;14992;50.844;4.418;2024-03-08T09:45:59;18.00;;;8.82;;
22336;SDS011;14992;50.844;4.418;2024-03-08T09:48:28;22.75;;;11.00;;
22336;SDS011;14992;50.844;4.418;2024-03-08T09:50:58;21.15;;;10.25;;
22336;SDS011;14992;50.844;4.418;2024-03-08T09:53:27;20.25;;;10.32;;
22336;SDS011;14992;50.844;4.418;2024-03-08T09:55:57;18.63;;;9.82;;
22336;SDS011;14992;50.844;4.418;2024-03-08T09:58:26;17.80;;;9.45;;
22336;SDS011;14992;50.844;4.418;2024-03-08T10:01:18;21.77;;;9.63;;
22336;SDS011;14992;50.844;4.418;2024-03-08T10:03:47;18.83;;;9.93;;
22336;SDS011;14992;50.844;4.418;2024-03-08T10:06:18;20.52;;;9.85;;
22336;SDS011;14992;50.844;4.418;2024-03-08T10:08:51;18.63;;;10.13;;
22336;SDS011;14992;50.844;4.418;2024-03-08T10:11:20;15.02;;;9.00;;
22336;SDS011;14992;50.844;4.418;2024-03-08T10:13:50;16.75;;;9.98;;
22336;SDS011;14992;50.844;4.418;2024-03-08T10:16:20;18.35;;;9.02;;
22336;SDS011;14992;50.844;4.418;2024-03-08T10:18:51;16.98;;;9.88;;
22336;SDS011;14992;50.844;4.418;2024-03-08T10:21:20;15.38;;;9.27;;
22336;SDS011;14992;50.844;4.418;2024-03-08T10:23:49;15.90;;;8.63;;
22336;SDS011;14992;50.844;4.418;2024-03-08T10:26:19;19.80;;;9.30;;
22336;SDS011;14992;50.844;4.418;2024-03-08T10:28:48;16.50;;;9.63;;
22336;SDS011;14992;50.844;4.418;2024-03-08T10:31:20;15.32;;;8.93;;
22336;SDS011;14992;50.844;4.418;2024-03-08T10:33:49;18.95;;;9.60;;
22336;SDS011;14992;50.844;4.418;2024-03-08T10:36:18;18.75;;;9.70;;
22336;SDS011;14992;50.844;4.418;2024-03-08T10:38:50;17.33;;;9.18;;
22336;SDS011;14992;50.844;4.418;2024-03-08T10:41:20;15.68;;;9.18;;
22336;SDS011;14992;50.844;4.418;2024-03-08T10:43:58;23.45;;;10.32;;
22336;SDS011;14992;50.844;4.418;2024-03-08T10:46:45;17.50;;;7.90;;
22336;SDS011;14992;50.844;4.418;2024-03-08T10:49:30;17.40;;;9.48;;
22336;SDS011;14992;50.844;4.418;2024-03-08T10:52:02;20.30;;;10.32;;
22336;SDS011;14992;50.844;4.418;2024-03-08T10:54:32;16.48;;;9.32;;
22336;SDS011;14992;50.844;4.418;2024-03-08T10:57:11;16.67;;;9.48;;
22336;SDS011;14992;50.844;4.418;2024-03-08T10:59:42;19.60;;;10.20;;
22336;SDS011;14992;50.844;4.418;2024-03-08T11:02:13;19.38;;;9.82;;
22336;SDS011;14992;50.844;4.418;2024-03-08T11:04:45;17.23;;;9.57;;
22336;SDS011;14992;50.844;4.418;2024-03-08T11:07:16;20.83;;;10.20;;
22336;SDS011;14992;50.844;4.418;2024-03-08T11:09:47;14.80;;;8.70;;
22336;SDS011;14992;50.844;4.418;2024-03-08T11:12:23;15.23;;;8.98;;
22336;SDS011;14992;50.844;4.418;2024-03-08T11:14:58;15.32;;;8.93;;
22336;SDS011;14992;50.844;4.418;2024-03-08T11:17:44;16.23;;;9.07;;
22336;SDS011;14992;50.844;4.418;2024-03-08T11:20:15;16.40;;;8.98;;
22336;SDS011;14992;50.844;4.418;2024-03-08T11:22:48;19.08;;;9.55;;
22336;SDS011;14992;50.844;4.418;2024-03-08T11:25:34;14.80;;;8.88;;
22336;SDS011;14992;50.844;4.418;2024-03-08T11:28:07;18.77;;;10.23;;
22336;SDS011;14992;50.844;4.418;2024-03-08T11:30:44;19.23;;;10.38;;
22336;SDS011;14992;50.844;4.418;2024-03-08T11:33:16;19.13;;;10.30;;
22336;SDS011;14992;50.844;4.418;2024-03-08T11:35:45;16.65;;;8.95;;
22336;SDS011;14992;50.844;4.418;2024-03-08T11:38:15;18.08;;;9.90;;
22336;SDS011;14992;50.844;4.418;2024-03-08T11:40:46;16.63;;;9.75;;
22336;SDS011;14992;50.844;4.418;2024-03-08T11:43:17;21.67;;;10.85;;
22336;SDS011;14992;50.844;4.418;2024-03-08T11:45:47;25.88;;;10.98;;
22336;SDS011;14992;50.844;4.418;2024-03-08T11:48:18;17.55;;;9.55;;
22336;SDS011;14992;50.844;4.418;2024-03-08T11:50:47;16.00;;;9.57;;
22336;SDS011;14992;50.844;4.418;2024-03-08T11:53:28;16.73;;;9.63;;
22336;SDS011;14992;50.844;4.418;2024-03-08T11:56:05;14.93;;;8.38;;
22336;SDS011;14992;50.844;4.418;2024-03-08T11:58:35;15.82;;;9.45;;
22336;SDS011;14992;50.844;4.418;2024-03-08T12:01:05;20.58;;;11.27;;
22336;SDS011;14992;50.844;4.418;2024-03-08T12:03:38;20.77;;;10.05;;
22336;SDS011;14992;50.844;4.418;2024-03-08T12:06:09;14.68;;;9.00;;
22336;SDS011;14992;50.844;4.418;2024-03-08T12:08:40;16.05;;;9.15;;
22336;SDS011;14992;50.844;4.418;2024-03-08T12:11:09;14.68;;;8.57;;
22336;SDS011;14992;50.844;4.418;2024-03-08T12:13:41;18.98;;;10.10;;
22336;SDS011;14992;50.844;4.418;2024-03-08T12:16:13;15.55;;;8.90;;
22336;SDS011;14992;50.844;4.418;2024-03-08T12:18:44;16.90;;;9.52;;
22336;SDS011;14992;50.844;4.418;2024-03-08T12:21:14;15.43;;;9.75;;
22336;SDS011;14992;50.844;4.418;2024-03-08T12:23:47;19.20;;;9.98;;
22336;SDS011;14992;50.844;4.418;2024-03-08T12:26:23;19.20;;;10.10;;
22336;SDS011;14992;50.844;4.418;2024-03-08T12:28:53;15.60;;;8.25;;
22336;SDS011;14992;50.844;4.418;2024-03-08T12:31:22;15.55;;;8.90;;
22336;SDS011;14992;50.844;4.418;2024-03-08T12:33:57;16.95;;;10.00;;
22336;SDS011;14992;50.844;4.418;2024-03-08T12:36:30;18.27;;;9.02;;
22336;SDS011;14992;50.844;4.418;2024-03-08T12:39:00;16.20;;;8.45;;
22336;SDS011;14992;50.844;4.418;2024-03-08T12:41:30;14.95;;;8.43;;
22336;SDS011;14992;50.844;4.418;2024-03-08T12:43:59;16.23;;;8.63;;
22336;SDS011;14992;50.844;4.418;2024-03-08T12:46:29;14.80;;;8.13;;
22336;SDS011;14992;50.844;4.418;2024-03-08T12:49:01;15.85;;;8.85;;
22336;SDS011;14992;50.844;4.418;2024-03-08T12:51:31;15.13;;;8.38;;
22336;SDS011;14992;50.844;4.418;2024-03-08T12:54:00;13.95;;;8.07;;
22336;SDS011;14992;50.844;4.418;2024-03-08T12:56:33;20.95;;;9.05;;
22336;SDS011;14992;50.844;4.418;2024-03-08T12:59:04;17.25;;;9.32;;
22336;SDS011;14992;50.844;4.418;2024-03-08T13:01:34;18.60;;;8.90;;
22336;SDS011;14992;50.844;4.418;2024-03-08T13:04:06;16.85;;;9.30;;
22336;SDS011;14992;50.844;4.418;2024-03-08T13:06:38;16.70;;;9.43;;
22336;SDS011;14992;50.844;4.418;2024-03-08T13:09:08;14.13;;;8.43;;
22336;SDS011;14992;50.844;4.418;2024-03-08T13:11:37;15.57;;;8.52;;
22336;SDS011;14992;50.844;4.418;2024-03-08T13:14:06;15.23;;;8.50;;
22336;SDS011;14992;50.844;4.418;2024-03-08T13:16:35;16.13;;;8.88;;
22336;SDS011;14992;50.844;4.418;2024-03-08T13:19:05;15.57;;;8.85;;
22336;SDS011;14992;50.844;4.418;2024-03-08T13:21:34;17.42;;;9.57;;
22336;SDS011;14992;50.844;4.418;2024-03-08T13:24:03;16.42;;;9.55;;
22336;SDS011;14992;50.844;4.418;2024-03-08T13:26:33;16.23;;;9.30;;
22336;SDS011;14992;50.844;4.418;2024-03-08T13:29:02;17.40;;;9.05;;
22336;SDS011;14992;50.844;4.418;2024-03-08T13:31:33;14.35;;;7.95;;
22336;SDS011;14992;50.844;4.418;2024-03-08T13:34:03;15.77;;;8.60;;
22336;SDS011;14992;50.844;4.418;2024-03-08T13:36:35;18.25;;;9.10;;
22336;SDS011;14992;50.844;4.418;2024-03-08T13:39:09;17.70;;;8.52;;
22336;SDS011;14992;50.844;4.418;2024-03-08T13:41:42;15.80;;;9.13;;
22336;SDS011;14992;50.844;4.418;2024-03-08T13:44:12;18.25;;;10.25;;
22336;SDS011;14992;50.844;4.418;2024-03-08T13:46:41;14.70;;;7.75;;
22336;SDS011;14992;50.844;4.418;2024-03-08T13:49:12;16.25;;;8.95;;
22336;SDS011;14992;50.844;4.418;2024-03-08T13:51:41;15.02;;;8.18;;
22336;SDS011;14992;50.844;4.418;2024-03-08T13:54:09;16.88;;;8.68;;
22336;SDS011;14992;50.844;4.418;2024-03-08T13:56:38;16.13;;;8.43;;
22336;SDS011;14992;50.844;4.418;2024-03-08T13:59:08;14.20;;;7.88;;
22336;SDS011;14992;50.844;4.418;2024-03-08T14:01:37;14.75;;;9.23;;
22336;SDS011;14992;50.844;4.418;2024-03-08T14:04:06;14.30;;;8.32;;
22336;SDS011;14992;50.844;4.418;2024-03-08T14:06:37;15.05;;;8.32;;
22336;SDS011;14992;50.844;4.418;2024-03-08T14:09:06;14.30;;;8.38;;
22336;SDS011;14992;50.844;4.418;2024-03-08T14:11:35;15.90;;;9.48;;
22336;SDS011;14992;50.844;4.418;2024-03-08T14:14:04;15.75;;;8.40;;
22336;SDS011;14992;50.844;4.418;2024-03-08T14:16:33;13.25;;;8.27;;
22336;SDS011;14992;50.844;4.418;2024-03-08T14:19:04;13.27;;;7.80;;
22336;SDS011;14992;50.844;4.418;2024-03-08T14:21:33;16.45;;;8.52;;
22336;SDS011;14992;50.844;4.418;2024-03-08T14:24:05;13.95;;;7.70;;
22336;SDS011;14992;50.844;4.418;2024-03-08T14:26:34;16.83;;;8.13;;
22336;SDS011;14992;50.844;4.418;2024-03-08T14:29:05;19.88;;;8.55;;
22336;SDS011;14992;50.844;4.418;2024-03-08T14:31:34;14.13;;;8.90;;
22336;SDS011;14992;50.844;4.418;2024-03-08T14:34:03;16.27;;;8.20;;
22336;SDS011;14992;50.844;4.418;2024-03-08T14:36:34;14.30;;;8.30;;
22336;SDS011;14992;50.844;4.418;2024-03-08T14:39:03;16.17;;;8.35;;
22336;SDS011;14992;50.844;4.418;2024-03-08T14:41:34;17.10;;;9.75;;
22336;SDS011;14992;50.844;4.418;2024-03-08T14:44:03;13.63;;;7.78;;
22336;SDS011;14992;50.844;4.418;2024-03-08T14:46:32;14.13;;;7.88;;
22336;SDS011;14992;50.844;4.418;2024-03-08T14:49:02;15.60;;;8.68;;
22336;SDS011;14992;50.844;4.418;2024-03-08T14:51:31;13.93;;;8.35;;